Sukret — TCA3885 — position and weather

sailwx.info

Track history (hours):
 
Tides and Currents Weather Stations Pressure Air Temp Water Temp Dewpoint Dewpoint Depression Visibility Wind Speed Wind Dir Waves Ship Positions

Sukret

Last reported at 2018-Jul-16 02:31 UTC. Time now 2018-Jul-16 02:29 UTC.
Position N 51°54' E 004°18'.

Length 149 m; draft 8.8 m.

Type: Cargo ship. MMSI: 271044363.

Date/timePositionNaut miles runAvg speedWind from/ knotsBaromVisibWave heightAir tempDewpointWater temp
2018-Jul-16 02:31N 51°54' E 004°18'3 5.3
2018-Jul-16 02:01N 51°55' E 004°14'2 4.8
2018-Jul-16 01:31N 51°57' E 004°11'3 6.1
2018-Jul-16 01:01N 51°59' E 004°07'3 6.1
2018-Jul-16 00:31N 51°60' E 004°02'3 6.4
2018-Jul-16 00:01N 52°00' E 003°57'3 6.4
2018-Jul-15 23:31N 52°00' E 003°52'4 7.8
2018-Jul-15 23:00N 51°59' E 003°46'3 5.1
2018-Jul-15 22:30N 51°57' E 003°43'0 0.1
2018-Jul-15 22:00N 51°57' E 003°43'0 0.0
2018-Jul-15 21:30N 51°57' E 003°43'0 0.0
2018-Jul-15 21:01N 51°57' E 003°43'0 0.0
2018-Jul-15 20:31N 51°57' E 003°43'0 0.0
2018-Jul-15 20:00N 51°57' E 003°43'0 0.2
2018-Jul-15 19:31N 51°57' E 003°43'0 0.1
2018-Jul-15 19:01N 51°57' E 003°43'0 0.0
2018-Jul-15 18:31N 51°57' E 003°43'0 0.0
2018-Jul-15 18:01N 51°57' E 003°43'0 0.0
2018-Jul-15 17:31N 51°57' E 003°43'0 0.0
2018-Jul-15 17:01N 51°57' E 003°43'0 0.0
2018-Jul-15 16:31N 51°57' E 003°43'0 0.0
2018-Jul-15 16:01N 51°57' E 003°43'0 0.1
2018-Jul-15 15:31N 51°57' E 003°44'0 0.0
2018-Jul-15 15:00N 51°57' E 003°44'0 0.0
2018-Jul-15 14:30N 51°57' E 003°44'0 0.1
2018-Jul-15 14:00N 51°57' E 003°43'0 0.2
2018-Jul-15 13:31N 51°57' E 003°43'0 0.1
2018-Jul-15 13:00N 51°57' E 003°43'0 0.0
2018-Jul-15 12:30N 51°57' E 003°43'0 0.1
2018-Jul-15 12:00N 51°57' E 003°43'0 0.0
2018-Jul-15 11:31N 51°57' E 003°43'0 0.0
2018-Jul-15 11:01N 51°57' E 003°43'0 0.0
2018-Jul-15 10:30N 51°57' E 003°43'0 0.0
2018-Jul-15 10:00N 51°57' E 003°43'0 0.0
2018-Jul-15 09:30N 51°57' E 003°43'0 0.0
2018-Jul-15 09:00N 51°57' E 003°43'0 0.0
2018-Jul-15 08:31N 51°57' E 003°43'0 0.0
2018-Jul-15 08:00N 51°57' E 003°43'0 0.0
2018-Jul-15 07:30N 51°57' E 003°43'0 0.1
2018-Jul-15 07:00N 51°57' E 003°43'0 0.2
2018-Jul-15 06:30N 51°57' E 003°43'0 0.1
2018-Jul-15 06:00N 51°57' E 003°43'0 0.0
2018-Jul-15 05:31N 51°57' E 003°44'0 0.4
2018-Jul-15 05:01N 51°57' E 003°43'2 4.0
2018-Jul-15 04:30N 51°57' E 003°40'5 8.9
2018-Jul-15 03:57N 51°57' E 003°32'612.9
2018-Jul-15 03:29N 51°55' E 003°23'613.0
2018-Jul-15 03:00N 51°53' E 003°13'713.2
2018-Jul-15 02:30N 51°51' E 003°03'713.2
2018-Jul-15 02:00N 51°49' E 002°53'613.2
2018-Jul-15 01:31N 51°47' E 002°43'612.6
2018-Jul-15 01:00N 51°44' E 002°34'612.6
2018-Jul-15 00:31N 51°40' E 002°27'612.2
2018-Jul-15 00:00N 51°35' E 002°20'611.8
2018-Jul-14 23:30N 51°31' E 002°14'511.0
2018-Jul-14 23:01N 51°27' E 002°08'510.5
2018-Jul-14 22:31N 51°23' E 002°03'510.0
2018-Jul-14 22:01N 51°19' E 001°58'5 9.3
2018-Jul-14 21:30N 51°15' E 001°52'4 9.0
2018-Jul-14 21:00N 51°12' E 001°48'4 8.5
2018-Jul-14 20:31N 51°09' E 001°43'4 8.4
2018-Jul-14 20:01N 51°05' E 001°39'4 8.7
2018-Jul-14 19:31N 51°02' E 001°35'5 9.1
2018-Jul-14 19:01N 50°58' E 001°31'5 9.3
2018-Jul-14 18:30N 50°54' E 001°27'5 9.8
2018-Jul-14 18:01N 50°50' E 001°24'510.3
2018-Jul-14 17:31N 50°45' E 001°22'510.2
2018-Jul-14 17:01N 50°40' E 001°19'510.6
2018-Jul-14 16:31N 50°37' E 001°13'510.9
2018-Jul-14 16:01N 50°33' E 001°06'510.9
2018-Jul-14 15:31N 50°30' E 000°60'510.6
2018-Jul-14 15:01N 50°28' E 000°52'710.9
2018-Jul-14 14:20N 50°26' E 000°41'911.0
2018-Jul-14 13:31N 50°23' E 000°27'611.1
2018-Jul-14 13:01N 50°22' E 000°19'611.4
2018-Jul-14 12:30N 50°20' E 000°10'711.9
2018-Jul-14 11:55N 50°18' W 000°01'512.4
2018-Jul-14 11:30N 50°17' W 000°08'612.9
2018-Jul-14 11:01N 50°15' W 000°18'713.7
2018-Jul-14 10:30N 50°14' W 000°29'714.3
2018-Jul-14 10:00N 50°12' W 000°39'814.9
2018-Jul-14 09:30N 50°09' W 000°50'815.2
2018-Jul-14 09:00N 50°07' W 001°02'815.5
2018-Jul-14 08:30N 50°05' W 001°13'815.7
2018-Jul-14 08:00N 50°03' W 001°25'815.6
2018-Jul-14 07:30N 50°01' W 001°37'815.2
2018-Jul-14 07:00N 49°59' W 001°48'714.5
2018-Jul-14 06:30N 49°57' W 001°59'713.7
2018-Jul-14 06:00N 49°56' W 002°10'612.7
2018-Jul-14 05:30N 49°54' W 002°19'711.9
2018-Jul-14 04:56N 49°51' W 002°29'1011.3
2018-Jul-14 04:01N 49°48' W 002°44'011.0
2018-Jul-14 03:58N 49°48' W 002°45'1710.1
2018-Jul-14 02:15N 49°41' W 003°09'5 9.9
2018-Jul-14 01:44N 49°39' W 003°16'5910.1
2018-Jul-13 19:57N 49°09' W 004°34'3112.5
2018-Jul-13 17:28N 48°54' W 005°16'613.0
2018-Jul-13 17:00N 48°51' W 005°24'1312.8
2018-Jul-13 15:58N 48°43' W 005°39'1513.3
2018-Jul-13 14:52N 48°30' W 005°50'  
2018-Jul-11 10:07N 39°23' W 009°50'311.2
2018-Jul-11 09:50N 39°20' W 009°50'411.2
2018-Jul-11 09:28N 39°16' W 009°51'511.4
2018-Jul-11 08:59N 39°11' W 009°51'511.2
2018-Jul-11 08:30N 39°05' W 009°51'611.1
2018-Jul-11 08:00N 38°60' W 009°51'611.4
2018-Jul-11 07:30N 38°54' W 009°51'611.2
2018-Jul-11 07:00N 38°48' W 009°51'611.2
2018-Jul-11 06:30N 38°43' W 009°51'611.3
2018-Jul-11 06:00N 38°37' W 009°49'611.4
2018-Jul-11 05:30N 38°32' W 009°47'611.6
2018-Jul-11 05:00N 38°26' W 009°45'611.7
2018-Jul-11 04:30N 38°20' W 009°44'611.8
2018-Jul-11 04:00N 38°15' W 009°42'611.8
2018-Jul-11 03:30N 38°09' W 009°41'611.7
2018-Jul-11 03:00N 38°03' W 009°39'611.6
2018-Jul-11 02:29N 37°57' W 009°37'611.5
2018-Jul-11 02:00N 37°52' W 009°35'911.6
2018-Jul-11 01:14N 37°43' W 009°33'411.5
2018-Jul-11 00:55N 37°40' W 009°31'1111.6
2018-Jul-10 23:56N 37°29' W 009°28'511.3
2018-Jul-10 23:28N 37°24' W 009°27'511.2
2018-Jul-10 23:00N 37°18' W 009°25'611.1
2018-Jul-10 22:28N 37°13' W 009°24'510.8
2018-Jul-10 22:01N 37°08' W 009°22'611.1
2018-Jul-10 21:30N 37°02' W 009°21'511.0
2018-Jul-10 21:00N 36°57' W 009°19'610.9
2018-Jul-10 20:28N 36°52' W 009°16'511.5
2018-Jul-10 20:01N 36°48' W 009°12'611.1
2018-Jul-10 19:30N 36°45' W 009°06'611.4
2018-Jul-10 19:00N 36°43' W 008°59'611.3
2018-Jul-10 18:30N 36°41' W 008°52'611.2
2018-Jul-10 17:59N 36°40' W 008°45'511.2
2018-Jul-10 17:30N 36°38' W 008°39'611.2
2018-Jul-10 17:00N 36°36' W 008°32'611.1
2018-Jul-10 16:31N 36°35' W 008°26'13611.1
2018-Jul-10 04:15N 35°58' W 005°43'2 9.1
2018-Jul-10 03:58N 35°58' W 005°40'4 8.7
2018-Jul-10 03:30N 35°59' W 005°35'4 8.8
2018-Jul-10 03:00N 35°60' W 005°29'4 9.0
2018-Jul-10 02:31N 36°01' W 005°24'5 9.2
2018-Jul-10 02:00N 36°01' W 005°18'5 9.6
2018-Jul-10 01:30N 36°02' W 005°13'21611.3
2018-Jul-09 06:27N 36°40' W 000°49'612.6
2018-Jul-09 06:00N 36°42' W 000°42'3112.4
2018-Jul-09 03:29N 36°49' W 000°04'4312.1
2018-Jul-08 23:57N 36°56' E 000°49'9211.5
2018-Jul-08 15:58N 37°10' E 002°42'5412.4
2018-Jul-08 11:38N 37°17' E 003°49'212.7
2018-Jul-08 11:29N 37°17' E 003°51'712.5
2018-Jul-08 10:58N 37°19' E 003°59'612.4
2018-Jul-08 10:30N 37°20' E 004°06'612.1
2018-Jul-08 09:59N 37°21' E 004°14'5412.1
2018-Jul-08 05:33N 37°23' E 005°22'112.7
2018-Jul-08 05:29N 37°23' E 005°23'1312.7
2018-Jul-08 04:26N 37°23' E 005°39'612.7
2018-Jul-08 04:00N 37°23' E 005°46'612.5
2018-Jul-08 03:30N 37°23' E 005°54'812.3
2018-Jul-08 02:50N 37°23' E 006°04'512.2
2018-Jul-08 02:25N 37°23' E 006°11'611.8
2018-Jul-08 01:54N 37°23' E 006°19'511.8
2018-Jul-08 01:29N 37°22' E 006°25'712.1
2018-Jul-08 00:56N 37°22' E 006°33'2112.2
2018-Jul-07 23:15N 37°22' E 006°59'312.3
2018-Jul-07 23:00N 37°22' E 007°03'33410.7
2018-Jul-06 15:49N 36°53' E 014°01'310.1
2018-Jul-06 15:30N 36°52' E 014°04'5 9.9
2018-Jul-06 15:01N 36°50' E 014°10'510.0
2018-Jul-06 14:30N 36°47' E 014°15'5 9.7
2018-Jul-06 13:59N 36°45' E 014°21'5 9.9
2018-Jul-06 13:30N 36°43' E 014°27'510.0
2018-Jul-06 13:00N 36°41' E 014°32'510.4
2018-Jul-06 12:30N 36°39' E 014°38'610.6
2018-Jul-06 11:59N 36°37' E 014°45'610.6
2018-Jul-06 11:27N 36°35' E 014°51'610.4
2018-Jul-06 10:55N 36°33' E 014°57'410.7
2018-Jul-06 10:30N 36°32' E 015°03'  
Track history (hours):
 
Tides and Currents Weather Stations Pressure Air Temp Water Temp Dewpoint Dewpoint Depression Visibility Wind Speed Wind Dir Waves Ship Positions

Sukret

Last reported at 2018-Jul-16 02:31 UTC. Time now 2018-Jul-16 02:29 UTC.
Position N 51°54' E 004°18'.

Length 149 m; draft 8.8 m.

Type: Cargo ship. MMSI: 271044363.

Date/timePositionNaut miles runAvg speedWind from/ knotsBaromVisibWave heightAir tempDewpointWater temp
2018-Jul-16 02:31N 51°54' E 004°18'3 5.3
2018-Jul-16 02:01N 51°55' E 004°14'2 4.8
2018-Jul-16 01:31N 51°57' E 004°11'3 6.1
2018-Jul-16 01:01N 51°59' E 004°07'3 6.1
2018-Jul-16 00:31N 51°60' E 004°02'3 6.4
2018-Jul-16 00:01N 52°00' E 003°57'3 6.4
2018-Jul-15 23:31N 52°00' E 003°52'4 7.8
2018-Jul-15 23:00N 51°59' E 003°46'3 5.1
2018-Jul-15 22:30N 51°57' E 003°43'0 0.1
2018-Jul-15 22:00N 51°57' E 003°43'0 0.0
2018-Jul-15 21:30N 51°57' E 003°43'0 0.0
2018-Jul-15 21:01N 51°57' E 003°43'0 0.0
2018-Jul-15 20:31N 51°57' E 003°43'0 0.0
2018-Jul-15 20:00N 51°57' E 003°43'0 0.2
2018-Jul-15 19:31N 51°57' E 003°43'0 0.1
2018-Jul-15 19:01N 51°57' E 003°43'0 0.0
2018-Jul-15 18:31N 51°57' E 003°43'0 0.0
2018-Jul-15 18:01N 51°57' E 003°43'0 0.0
2018-Jul-15 17:31N 51°57' E 003°43'0 0.0
2018-Jul-15 17:01N 51°57' E 003°43'0 0.0
2018-Jul-15 16:31N 51°57' E 003°43'0 0.0
2018-Jul-15 16:01N 51°57' E 003°43'0 0.1
2018-Jul-15 15:31N 51°57' E 003°44'0 0.0
2018-Jul-15 15:00N 51°57' E 003°44'0 0.0
2018-Jul-15 14:30N 51°57' E 003°44'0 0.1
2018-Jul-15 14:00N 51°57' E 003°43'0 0.2
2018-Jul-15 13:31N 51°57' E 003°43'0 0.1
2018-Jul-15 13:00N 51°57' E 003°43'0 0.0
2018-Jul-15 12:30N 51°57' E 003°43'0 0.1
2018-Jul-15 12:00N 51°57' E 003°43'0 0.0
2018-Jul-15 11:31N 51°57' E 003°43'0 0.0
2018-Jul-15 11:01N 51°57' E 003°43'0 0.0
2018-Jul-15 10:30N 51°57' E 003°43'0 0.0
2018-Jul-15 10:00N 51°57' E 003°43'0 0.0
2018-Jul-15 09:30N 51°57' E 003°43'0 0.0
2018-Jul-15 09:00N 51°57' E 003°43'0 0.0
2018-Jul-15 08:31N 51°57' E 003°43'0 0.0
2018-Jul-15 08:00N 51°57' E 003°43'0 0.0
2018-Jul-15 07:30N 51°57' E 003°43'0 0.1
2018-Jul-15 07:00N 51°57' E 003°43'0 0.2
2018-Jul-15 06:30N 51°57' E 003°43'0 0.1
2018-Jul-15 06:00N 51°57' E 003°43'0 0.0
2018-Jul-15 05:31N 51°57' E 003°44'0 0.4
2018-Jul-15 05:01N 51°57' E 003°43'2 4.0
2018-Jul-15 04:30N 51°57' E 003°40'5 8.9
2018-Jul-15 03:57N 51°57' E 003°32'612.9
2018-Jul-15 03:29N 51°55' E 003°23'613.0
2018-Jul-15 03:00N 51°53' E 003°13'713.2
2018-Jul-15 02:30N 51°51' E 003°03'713.2
2018-Jul-15 02:00N 51°49' E 002°53'613.2
2018-Jul-15 01:31N 51°47' E 002°43'612.6
2018-Jul-15 01:00N 51°44' E 002°34'612.6
2018-Jul-15 00:31N 51°40' E 002°27'612.2
2018-Jul-15 00:00N 51°35' E 002°20'611.8
2018-Jul-14 23:30N 51°31' E 002°14'511.0
2018-Jul-14 23:01N 51°27' E 002°08'510.5
2018-Jul-14 22:31N 51°23' E 002°03'510.0
2018-Jul-14 22:01N 51°19' E 001°58'5 9.3
2018-Jul-14 21:30N 51°15' E 001°52'4 9.0
2018-Jul-14 21:00N 51°12' E 001°48'4 8.5
2018-Jul-14 20:31N 51°09' E 001°43'4 8.4
2018-Jul-14 20:01N 51°05' E 001°39'4 8.7
2018-Jul-14 19:31N 51°02' E 001°35'5 9.1
2018-Jul-14 19:01N 50°58' E 001°31'5 9.3
2018-Jul-14 18:30N 50°54' E 001°27'5 9.8
2018-Jul-14 18:01N 50°50' E 001°24'510.3
2018-Jul-14 17:31N 50°45' E 001°22'510.2
2018-Jul-14 17:01N 50°40' E 001°19'510.6
2018-Jul-14 16:31N 50°37' E 001°13'510.9
2018-Jul-14 16:01N 50°33' E 001°06'510.9
2018-Jul-14 15:31N 50°30' E 000°60'510.6
2018-Jul-14 15:01N 50°28' E 000°52'710.9
2018-Jul-14 14:20N 50°26' E 000°41'911.0
2018-Jul-14 13:31N 50°23' E 000°27'611.1
2018-Jul-14 13:01N 50°22' E 000°19'611.4
2018-Jul-14 12:30N 50°20' E 000°10'711.9
2018-Jul-14 11:55N 50°18' W 000°01'512.4
2018-Jul-14 11:30N 50°17' W 000°08'612.9
2018-Jul-14 11:01N 50°15' W 000°18'713.7
2018-Jul-14 10:30N 50°14' W 000°29'714.3
2018-Jul-14 10:00N 50°12' W 000°39'814.9
2018-Jul-14 09:30N 50°09' W 000°50'815.2
2018-Jul-14 09:00N 50°07' W 001°02'815.5
2018-Jul-14 08:30N 50°05' W 001°13'815.7
2018-Jul-14 08:00N 50°03' W 001°25'815.6
2018-Jul-14 07:30N 50°01' W 001°37'815.2
2018-Jul-14 07:00N 49°59' W 001°48'714.5
2018-Jul-14 06:30N 49°57' W 001°59'713.7
2018-Jul-14 06:00N 49°56' W 002°10'612.7
2018-Jul-14 05:30N 49°54' W 002°19'711.9
2018-Jul-14 04:56N 49°51' W 002°29'1011.3
2018-Jul-14 04:01N 49°48' W 002°44'011.0
2018-Jul-14 03:58N 49°48' W 002°45'1710.1
2018-Jul-14 02:15N 49°41' W 003°09'5 9.9
2018-Jul-14 01:44N 49°39' W 003°16'5910.1
2018-Jul-13 19:57N 49°09' W 004°34'3112.5
2018-Jul-13 17:28N 48°54' W 005°16'613.0
2018-Jul-13 17:00N 48°51' W 005°24'1312.8
2018-Jul-13 15:58N 48°43' W 005°39'1513.3
2018-Jul-13 14:52N 48°30' W 005°50'  
2018-Jul-11 10:07N 39°23' W 009°50'311.2
2018-Jul-11 09:50N 39°20' W 009°50'411.2
2018-Jul-11 09:28N 39°16' W 009°51'511.4
2018-Jul-11 08:59N 39°11' W 009°51'511.2
2018-Jul-11 08:30N 39°05' W 009°51'611.1
2018-Jul-11 08:00N 38°60' W 009°51'611.4
2018-Jul-11 07:30N 38°54' W 009°51'611.2
2018-Jul-11 07:00N 38°48' W 009°51'611.2
2018-Jul-11 06:30N 38°43' W 009°51'611.3
2018-Jul-11 06:00N 38°37' W 009°49'611.4
2018-Jul-11 05:30N 38°32' W 009°47'611.6
2018-Jul-11 05:00N 38°26' W 009°45'611.7
2018-Jul-11 04:30N 38°20' W 009°44'611.8
2018-Jul-11 04:00N 38°15' W 009°42'611.8
2018-Jul-11 03:30N 38°09' W 009°41'611.7
2018-Jul-11 03:00N 38°03' W 009°39'611.6
2018-Jul-11 02:29N 37°57' W 009°37'611.5
2018-Jul-11 02:00N 37°52' W 009°35'911.6
2018-Jul-11 01:14N 37°43' W 009°33'411.5
2018-Jul-11 00:55N 37°40' W 009°31'1111.6
2018-Jul-10 23:56N 37°29' W 009°28'511.3
2018-Jul-10 23:28N 37°24' W 009°27'511.2
2018-Jul-10 23:00N 37°18' W 009°25'611.1
2018-Jul-10 22:28N 37°13' W 009°24'510.8
2018-Jul-10 22:01N 37°08' W 009°22'611.1
2018-Jul-10 21:30N 37°02' W 009°21'511.0
2018-Jul-10 21:00N 36°57' W 009°19'610.9
2018-Jul-10 20:28N 36°52' W 009°16'511.5
2018-Jul-10 20:01N 36°48' W 009°12'611.1
2018-Jul-10 19:30N 36°45' W 009°06'611.4
2018-Jul-10 19:00N 36°43' W 008°59'611.3
2018-Jul-10 18:30N 36°41' W 008°52'611.2
2018-Jul-10 17:59N 36°40' W 008°45'511.2
2018-Jul-10 17:30N 36°38' W 008°39'611.2
2018-Jul-10 17:00N 36°36' W 008°32'611.1
2018-Jul-10 16:31N 36°35' W 008°26'13611.1
2018-Jul-10 04:15N 35°58' W 005°43'2 9.1
2018-Jul-10 03:58N 35°58' W 005°40'4 8.7
2018-Jul-10 03:30N 35°59' W 005°35'4 8.8
2018-Jul-10 03:00N 35°60' W 005°29'4 9.0
2018-Jul-10 02:31N 36°01' W 005°24'5 9.2
2018-Jul-10 02:00N 36°01' W 005°18'5 9.6
2018-Jul-10 01:30N 36°02' W 005°13'21611.3
2018-Jul-09 06:27N 36°40' W 000°49'612.6
2018-Jul-09 06:00N 36°42' W 000°42'3112.4
2018-Jul-09 03:29N 36°49' W 000°04'4312.1
2018-Jul-08 23:57N 36°56' E 000°49'9211.5
2018-Jul-08 15:58N 37°10' E 002°42'5412.4
2018-Jul-08 11:38N 37°17' E 003°49'212.7
2018-Jul-08 11:29N 37°17' E 003°51'712.5
2018-Jul-08 10:58N 37°19' E 003°59'612.4
2018-Jul-08 10:30N 37°20' E 004°06'612.1
2018-Jul-08 09:59N 37°21' E 004°14'5412.1
2018-Jul-08 05:33N 37°23' E 005°22'112.7
2018-Jul-08 05:29N 37°23' E 005°23'1312.7
2018-Jul-08 04:26N 37°23' E 005°39'612.7
2018-Jul-08 04:00N 37°23' E 005°46'612.5
2018-Jul-08 03:30N 37°23' E 005°54'812.3
2018-Jul-08 02:50N 37°23' E 006°04'512.2
2018-Jul-08 02:25N 37°23' E 006°11'611.8
2018-Jul-08 01:54N 37°23' E 006°19'511.8
2018-Jul-08 01:29N 37°22' E 006°25'712.1
2018-Jul-08 00:56N 37°22' E 006°33'2112.2
2018-Jul-07 23:15N 37°22' E 006°59'312.3
2018-Jul-07 23:00N 37°22' E 007°03'33410.7
2018-Jul-06 15:49N 36°53' E 014°01'310.1
2018-Jul-06 15:30N 36°52' E 014°04'5 9.9
2018-Jul-06 15:01N 36°50' E 014°10'510.0
2018-Jul-06 14:30N 36°47' E 014°15'5 9.7
2018-Jul-06 13:59N 36°45' E 014°21'5 9.9
2018-Jul-06 13:30N 36°43' E 014°27'510.0
2018-Jul-06 13:00N 36°41' E 014°32'510.4
2018-Jul-06 12:30N 36°39' E 014°38'610.6
2018-Jul-06 11:59N 36°37' E 014°45'610.6
2018-Jul-06 11:27N 36°35' E 014°51'610.4
2018-Jul-06 10:55N 36°33' E 014°57'410.7
2018-Jul-06 10:30N 36°32' E 015°03'  

Dump ship's entire track history